Terminal Aerodrome Forecast
Issued by NWS

Home | Current Version | Previous Version | Text Only | Print | Product List | Glossary On
Versions: 1 2 3 4 5 6 7 8 9 10 11 12 13 14 15 16
000
FTUS46 KEKA 032345
TAFCEC
TAF
KCEC 032345Z 0400/0424 32020G32KT P6SM SKC
     FM040500 36005KT P6SM SKC
     FM040900 03004KT P6SM SCT007
     FM041500 36005KT P6SM FEW007
     FM041900 32017G27KT P6SM SKC=

USA.gov is the U.S. government's official web portal to all federal, state and local government web resources and services.